Norrhoeg, Sweden

1:24 PM CET on February 09, 2016 (GMT +0100)
Huskasnas | | Change Station
CLOSE
Current Station
Personal Weather Station
Location: Ramsjo, HALSINGLAND
Elevation: 712 ft
Nearby Weather Stations

Elev 712 ft 62.05 °N, 15.82 °E | Updated 9 seconds ago

Mostly Cloudy
Mostly Cloudy
36.7 °F
Feels Like 34 °F
N
3.8
Wind Variable Wind from SE
Gusts 4.5 mph

Today
High -- | Low -- °F
--% Chance of Precip.
Yesterday
High -- | Low -- °F
Precip. -- in
Pressure 28.88 in
Visibility 6.2 miles
Clouds Mostly Cloudy 600 ft
Windchill 34 °F
Dew Point 36 °F
Humidity 96%
Rainfall 0.02 in
Snow Depth Not available.
8:04 AM 4:20 PM
New Moon, 1% visible
METAR ESNN 091150Z 13005KT 9999 BKN006 02/01 Q0978 R16/29//85
Pressure 28.88 in
Visibility 6.2 miles
Clouds Mostly Cloudy 600 ft
Windchill 34 °F
Dew Point 36 °F
Humidity 96%
Rainfall 0.02 in
Snow Depth Not available.
8:04 AM 4:20 PM
New Moon, 1% visible
METAR ESNN 091150Z 13005KT 9999 BKN006 02/01 Q0978 R16/29//85

10-Day Weather Forecast

Almanac

Astronomy

Feb. 09, 2016 Rise Set
Actual Time
Civil Twilight
Nautical Twilight
Astronomical Twilight
Moon
Length of Visible Light
Length of Day
Tomorrow will be .
, % of the Moon is Illuminated

Today's Extremes

Country Highs Country Lows

Community

WunderPhotos

Upload Photos

1,891,588 photos uploaded!

WunderBlog® & News

Nearby

Air Quality

  Air Quality AQ Index Pollutant
Not available.

Snow Depth

Station Depth Elevation

Earthquake Activity

City Distance Mag. Time & Date
Minimum magnitude displayed is 2.5.

Coastal Water Temperatures

Place Temperature

Stations

Nearby Weather Stations

Station Location Temp. Windchill Dew Point Humidity Wind Precip. Elev Updated Type